Capt. George Brumley — WDI3717 — position and weather

sailwx.info

Track history (hours):
 
Tides and Currents Weather Stations Pressure Air Temp Water Temp Dewpoint Dewpoint Depression Visibility Wind Speed Wind Dir Waves Ship Positions

Capt. George Brumley

Owner: Genesis Marine, LLC, Houston, TX. More information available from US FCC via Universal Licensing System and Coast Guard Vessel Documentation Center.

Last reported at 2017-Nov-17 20:08 UTC. Time now 2017-Nov-17 21:15 UTC.
Position N 29°44' W 095°01'.

Length 25 m; draft 3 m.

Type: Other ship. MMSI: 367691190.

Date/timePositionNaut miles runAvg speedWind from/ knotsBaromVisibWave heightAir tempDewpointWater temp
2017-Nov-17 20:08N 29°44' W 095°01'0 0.0
2017-Nov-17 19:57N 29°44' W 095°01'0 0.0
2017-Nov-17 13:58N 29°44' W 095°01'0 0.0
2017-Nov-17 13:29N 29°44' W 095°01'4 0.5
2017-Nov-17 05:55N 29°46' W 095°05'1 1.4
2017-Nov-17 05:29N 29°45' W 095°06'1 0.3
2017-Nov-17 03:18N 29°46' W 095°05'0 0.2
2017-Nov-17 01:22N 29°46' W 095°05'1 0.1
2017-Nov-16 06:42N 29°46' W 095°07'1 1.6
2017-Nov-16 06:14N 29°46' W 095°06'1 2.1
2017-Nov-16 05:58N 29°46' W 095°05'2 1.1
2017-Nov-16 03:59N 29°47' W 095°04'2 0.2
2017-Nov-15 17:02N 29°46' W 095°06'0 4.5
2017-Nov-15 16:58N 29°46' W 095°05'3 5.9
2017-Nov-15 16:29N 29°44' W 095°03'1 0.4
2017-Nov-15 13:18N 29°44' W 095°01'1 1.8
2017-Nov-15 13:00N 29°44' W 095°02'3 6.5
2017-Nov-15 12:30N 29°46' W 095°05'1 0.2
2017-Nov-15 08:07N 29°46' W 095°06'1 4.0
2017-Nov-15 07:59N 29°46' W 095°05'2 2.5
2017-Nov-15 07:16N 29°47' W 095°04'2 0.4
2017-Nov-15 01:04N 29°45' W 095°06'0 5.3
2017-Nov-15 01:00N 29°45' W 095°06'1 0.1
2017-Nov-14 08:39N 29°46' W 095°07'0 0.1
2017-Nov-14 08:23N 29°46' W 095°07'0 0.0
2017-Nov-14 02:12N 29°46' W 095°07'1 1.7
2017-Nov-14 01:52N 29°46' W 095°06'1 2.3
2017-Nov-14 01:27N 29°46' W 095°05'2 3.3
2017-Nov-14 00:57N 29°47' W 095°04'0 0.9
2017-Nov-14 00:30N 29°47' W 095°04'2 2.0
2017-Nov-13 23:29N 29°46' W 095°05'28 1.3
2017-Nov-13 01:59N 29°26' W 094°42'3 4.9
2017-Nov-13 01:24N 29°28' W 094°39'122 3.9
2017-Nov-11 18:09N 29°51' W 092°22'1 4.3
2017-Nov-11 17:53N 29°51' W 092°20'2 4.6
2017-Nov-11 17:27N 29°50' W 092°18'2 4.3
2017-Nov-11 16:59N 29°49' W 092°17'2 4.3
2017-Nov-11 16:29N 29°48' W 092°14'  
Track history (hours):
 
Tides and Currents Weather Stations Pressure Air Temp Water Temp Dewpoint Dewpoint Depression Visibility Wind Speed Wind Dir Waves Ship Positions

Capt. George Brumley

Owner: Genesis Marine, LLC, Houston, TX. More information available from US FCC via Universal Licensing System and Coast Guard Vessel Documentation Center.

Last reported at 2017-Nov-17 20:08 UTC. Time now 2017-Nov-17 21:15 UTC.
Position N 29°44' W 095°01'.

Length 25 m; draft 3 m.

Type: Other ship. MMSI: 367691190.

Date/timePositionNaut miles runAvg speedWind from/ knotsBaromVisibWave heightAir tempDewpointWater temp
2017-Nov-17 20:08N 29°44' W 095°01'0 0.0
2017-Nov-17 19:57N 29°44' W 095°01'0 0.0
2017-Nov-17 13:58N 29°44' W 095°01'0 0.0
2017-Nov-17 13:29N 29°44' W 095°01'4 0.5
2017-Nov-17 05:55N 29°46' W 095°05'1 1.4
2017-Nov-17 05:29N 29°45' W 095°06'1 0.3
2017-Nov-17 03:18N 29°46' W 095°05'0 0.2
2017-Nov-17 01:22N 29°46' W 095°05'1 0.1
2017-Nov-16 06:42N 29°46' W 095°07'1 1.6
2017-Nov-16 06:14N 29°46' W 095°06'1 2.1
2017-Nov-16 05:58N 29°46' W 095°05'2 1.1
2017-Nov-16 03:59N 29°47' W 095°04'2 0.2
2017-Nov-15 17:02N 29°46' W 095°06'0 4.5
2017-Nov-15 16:58N 29°46' W 095°05'3 5.9
2017-Nov-15 16:29N 29°44' W 095°03'1 0.4
2017-Nov-15 13:18N 29°44' W 095°01'1 1.8
2017-Nov-15 13:00N 29°44' W 095°02'3 6.5
2017-Nov-15 12:30N 29°46' W 095°05'1 0.2
2017-Nov-15 08:07N 29°46' W 095°06'1 4.0
2017-Nov-15 07:59N 29°46' W 095°05'2 2.5
2017-Nov-15 07:16N 29°47' W 095°04'2 0.4
2017-Nov-15 01:04N 29°45' W 095°06'0 5.3
2017-Nov-15 01:00N 29°45' W 095°06'1 0.1
2017-Nov-14 08:39N 29°46' W 095°07'0 0.1
2017-Nov-14 08:23N 29°46' W 095°07'0 0.0
2017-Nov-14 02:12N 29°46' W 095°07'1 1.7
2017-Nov-14 01:52N 29°46' W 095°06'1 2.3
2017-Nov-14 01:27N 29°46' W 095°05'2 3.3
2017-Nov-14 00:57N 29°47' W 095°04'0 0.9
2017-Nov-14 00:30N 29°47' W 095°04'2 2.0
2017-Nov-13 23:29N 29°46' W 095°05'28 1.3
2017-Nov-13 01:59N 29°26' W 094°42'3 4.9
2017-Nov-13 01:24N 29°28' W 094°39'122 3.9
2017-Nov-11 18:09N 29°51' W 092°22'1 4.3
2017-Nov-11 17:53N 29°51' W 092°20'2 4.6
2017-Nov-11 17:27N 29°50' W 092°18'2 4.3
2017-Nov-11 16:59N 29°49' W 092°17'2 4.3
2017-Nov-11 16:29N 29°48' W 092°14'  

Dump ship's entire track history